ADDS TAF Data INFO
IDs: Format: Raw Decoded Include METARs

Data at: 1806 UTC 12 Dec 2017

TAF for:KSNS (Salinas Muni, CA, US) issued at 1720 UTC 12 Dec 2017
Text:KSNS 121720Z 1218/1318 10012KT P6SM FEW200
Forecast period:1800 to 2230 UTC 12 December 2017
Forecast type:FROM: standard forecast or significant change
Winds:from the E (100 degrees) at 14 MPH (12 knots; 6.2 m/s)
Visibility:6 or more sm (10+ km)
Ceiling:at least 12,000 feet AGL
Clouds: few clouds at 20000 feet AGL
Text:FM122230 29005KT P6SM FEW200
Forecast period:2230 UTC 12 December 2017 to 0300 UTC 13 December 2017
Forecast type:FROM: standard forecast or significant change
Winds:from the WNW (290 degrees) at 6 MPH (5 knots; 2.6 m/s)
Visibility:6 or more sm (10+ km)
Ceiling:at least 12,000 feet AGL
Clouds: few clouds at 20000 feet AGL
Text:FM130300 14004KT P6SM SKC
Forecast period:0300 to 0800 UTC 13 December 2017
Forecast type:FROM: standard forecast or significant change
Winds:from the SE (140 degrees) at 5 MPH (4 knots; 2.1 m/s)
Visibility:6 or more sm (10+ km)
Ceiling:at least 12,000 feet AGL
Clouds:clear skies
Text:FM130800 11009KT P6SM SKC
Forecast period:0800 to 1800 UTC 13 December 2017
Forecast type:FROM: standard forecast or significant change
Winds:from the ESE (110 degrees) at 10 MPH (9 knots; 4.6 m/s)
Visibility:6 or more sm (10+ km)
Ceiling:at least 12,000 feet AGL
Clouds:clear skies